createdAt,value
2023-07-10T00:02:01.435Z,101059.47
2023-07-10T00:04:28.300Z,101072.34
2023-07-10T00:06:56.421Z,101069.19
2023-07-10T00:09:23.311Z,101074.41
2023-07-10T00:11:55.346Z,101094.69
2023-07-10T00:14:38.330Z,101084.13
2023-07-10T00:17:15.123Z,101085.19
2023-07-10T00:19:42.896Z,101079.50
2023-07-10T00:22:09.546Z,101068.09
2023-07-10T00:24:36.349Z,101063.25
2023-07-10T00:27:13.874Z,101056.53
2023-07-10T00:29:41.147Z,101054.22
2023-07-10T00:32:18.686Z,101047.00
2023-07-10T00:34:47.974Z,101028.25
2023-07-10T00:37:14.751Z,101031.19
2023-07-10T00:39:43.266Z,101034.13
2023-07-10T00:42:23.464Z,101035.16
2023-07-10T00:44:58.985Z,101038.31
2023-07-10T00:47:47.393Z,101032.81
2023-07-10T00:50:40.404Z,101028.63
2023-07-10T00:53:29.024Z,101030.94
2023-07-10T00:56:03.489Z,101038.09
2023-07-10T00:58:43.798Z,101040.66
2023-07-10T01:01:17.846Z,101036.63
2023-07-10T01:03:57.728Z,101032.81
2023-07-10T01:06:30.773Z,101031.75
2023-07-10T01:09:09.857Z,101036.59
2023-07-10T01:11:38.486Z,101036.16
2023-07-10T01:14:11.369Z,101034.03
2023-07-10T01:16:38.403Z,101042.91
2023-07-10T01:19:25.135Z,101034.03
2023-07-10T01:21:58.330Z,101039.53
2023-07-10T01:24:26.038Z,101039.13
2023-07-10T01:26:58.380Z,101025.63
2023-07-10T01:29:43.270Z,101025.84
2023-07-10T01:32:19.469Z,101020.19
2023-07-10T01:35:09.157Z,101012.19
2023-07-10T01:37:35.995Z,101011.16
2023-07-10T01:40:15.909Z,100998.28
2023-07-10T01:42:43.089Z,100985.00
2023-07-10T01:45:15.399Z,100997.44
2023-07-10T01:47:42.786Z,100991.75
2023-07-10T01:50:10.605Z,100986.28
2023-07-10T01:52:40.041Z,100990.31
2023-07-10T01:55:28.829Z,100989.88
2023-07-10T01:57:58.525Z,100989.50
2023-07-10T02:00:28.163Z,100989.69
2023-07-10T02:02:58.156Z,100992.00
2023-07-10T02:05:38.150Z,100988.63
2023-07-10T02:08:07.236Z,100989.84
2023-07-10T02:10:44.875Z,100989.22
2023-07-10T02:13:15.355Z,100981.59
2023-07-10T02:15:45.005Z,100988.94
2023-07-10T02:18:11.746Z,100984.97
2023-07-10T02:20:40.312Z,100987.91
2023-07-10T02:23:10.091Z,100984.31
2023-07-10T02:25:42.985Z,100990.22
2023-07-10T02:28:10.190Z,100989.19
2023-07-10T02:30:42.597Z,100992.75
2023-07-10T02:33:11.981Z,100991.28
2023-07-10T02:35:41.800Z,100994.66
2023-07-10T02:38:09.673Z,100994.88
2023-07-10T02:40:36.632Z,100997.19
2023-07-10T02:43:03.602Z,100994.25
2023-07-10T02:45:31.122Z,101008.56
2023-07-10T02:47:58.440Z,100997.44
2023-07-10T02:50:27.950Z,101005.41
2023-07-10T02:52:57.850Z,101005.41
2023-07-10T02:55:27.633Z,101018.47
2023-07-10T02:58:01.949Z,101016.81
2023-07-10T03:00:28.903Z,101011.13
2023-07-10T03:03:04.468Z,101011.78
2023-07-10T03:05:41.552Z,101021.28
2023-07-10T03:08:08.220Z,101026.13
2023-07-10T03:10:34.869Z,101023.63
2023-07-10T03:13:07.217Z,101020.25
2023-07-10T03:15:33.914Z,101029.53
2023-07-10T03:18:02.978Z,101026.16
2023-07-10T03:20:29.681Z,101030.34
2023-07-10T03:22:59.131Z,101030.16
2023-07-10T03:25:25.986Z,101027.63
2023-07-10T03:30:36.687Z,101025.31
2023-07-10T03:33:16.009Z,101024.47
2023-07-10T03:35:44.339Z,101033.53
2023-07-10T03:38:11.012Z,101017.09
2023-07-10T03:40:37.654Z,101023.63
2023-07-10T03:43:10.325Z,101019.00
2023-07-10T03:45:37.461Z,101027.84
2023-07-10T03:48:07.749Z,101028.88
2023-07-10T03:50:37.435Z,101029.53
2023-07-10T03:53:06.666Z,101056.94
2023-07-10T03:55:35.840Z,101070.19
2023-07-10T03:58:02.702Z,101056.72
2023-07-10T04:00:29.704Z,101050.81
2023-07-10T04:02:58.707Z,101055.84
2023-07-10T04:05:28.177Z,101067.69
2023-07-10T04:08:00.563Z,101072.94
2023-07-10T04:10:27.240Z,101060.31
2023-07-10T04:12:56.947Z,101057.38
2023-07-10T04:15:23.604Z,101059.88
2023-07-10T04:17:56.514Z,101053.56
2023-07-10T04:20:23.307Z,101042.59
2023-07-10T04:22:50.107Z,101046.19
2023-07-10T04:25:17.051Z,101059.03
2023-07-10T04:27:43.782Z,101052.50
2023-07-10T04:30:13.477Z,101041.13
2023-07-10T04:32:40.252Z,101040.28
2023-07-10T04:35:12.022Z,101045.13
2023-07-10T04:37:40.821Z,101051.84
2023-07-10T04:40:16.243Z,101039.84
2023-07-10T04:42:45.859Z,101030.34
2023-07-10T04:45:15.591Z,101014.53
2023-07-10T04:47:46.216Z,101010.06
2023-07-10T04:50:16.292Z,101017.47
2023-07-10T04:52:42.902Z,101005.88
2023-07-10T04:55:09.738Z,101007.09
2023-07-10T04:57:36.472Z,101011.50
2023-07-10T05:00:04.000Z,101002.88
2023-07-10T05:02:30.757Z,101006.88
2023-07-10T05:04:57.700Z,101010.03
2023-07-10T05:07:24.565Z,101007.75
2023-07-10T05:09:51.280Z,100998.22
2023-07-10T05:12:18.119Z,101008.56
2023-07-10T05:14:45.054Z,101011.13
2023-07-10T05:17:11.689Z,101013.41
2023-07-10T05:19:46.121Z,101017.84
2023-07-10T05:22:14.882Z,101012.94
2023-07-10T05:24:41.862Z,101010.41
2023-07-10T05:27:08.608Z,101008.91
2023-07-10T05:29:35.193Z,101002.53
2023-07-10T05:32:09.858Z,101007.16
2023-07-10T05:34:36.608Z,101005.03
2023-07-10T05:37:09.374Z,100998.03
2023-07-10T05:39:36.233Z,100990.41
2023-07-10T05:42:09.427Z,100975.38
2023-07-10T05:44:36.353Z,100978.75
2023-07-10T05:47:06.720Z,100976.16
2023-07-10T05:49:33.854Z,100963.25
2023-07-10T05:52:00.826Z,100976.00
2023-07-10T05:54:27.638Z,100974.13
2023-07-10T05:56:57.224Z,100976.22
2023-07-10T05:59:24.254Z,100976.88
2023-07-10T06:01:50.942Z,100975.44
2023-07-10T06:04:17.752Z,100975.03
2023-07-10T06:06:45.948Z,100985.59
2023-07-10T06:09:12.753Z,100985.59
2023-07-10T06:11:39.508Z,100979.25
2023-07-10T06:14:09.113Z,100982.19
2023-07-10T06:16:35.978Z,100982.41
2023-07-10T06:19:11.408Z,100990.81
2023-07-10T06:21:38.377Z,100986.16
2023-07-10T06:24:10.418Z,100987.81
2023-07-10T06:26:37.121Z,100976.59
2023-07-10T06:29:12.955Z,100973.78
2023-07-10T06:31:39.646Z,100967.41
2023-07-10T06:34:09.452Z,100968.03
2023-07-10T06:36:36.078Z,100966.31
2023-07-10T06:39:04.016Z,100966.72
2023-07-10T06:41:31.984Z,100954.66
2023-07-10T06:43:58.614Z,100945.34
2023-07-10T06:46:27.199Z,100956.75
2023-07-10T06:48:56.457Z,100954.63
2023-07-10T06:51:23.249Z,100954.09
2023-07-10T06:53:49.962Z,100961.22
2023-07-10T06:56:19.282Z,100960.59
2023-07-10T06:58:45.952Z,100965.66
2023-07-10T07:01:14.899Z,100961.88
2023-07-10T07:03:42.184Z,100952.47
2023-07-10T07:06:09.250Z,100957.94
2023-07-10T07:08:37.197Z,100968.16
2023-07-10T07:11:03.907Z,100966.72
2023-07-10T07:13:35.214Z,100968.84
2023-07-10T07:16:02.174Z,100978.16
2023-07-10T07:18:29.714Z,100975.25
2023-07-10T07:20:57.352Z,100967.03
2023-07-10T07:23:27.469Z,100955.66
2023-07-10T07:26:04.557Z,100958.47
2023-07-10T07:28:31.691Z,100966.59
2023-07-10T07:31:11.114Z,100946.63
2023-07-10T07:33:40.571Z,100951.56
2023-07-10T07:36:15.188Z,100966.44
2023-07-10T07:38:42.273Z,100955.47
2023-07-10T07:41:12.888Z,100966.69
2023-07-10T07:43:39.830Z,100975.78
2023-07-10T07:46:09.671Z,100976.00
2023-07-10T07:48:36.488Z,100974.72
2023-07-10T07:51:10.859Z,100965.03
2023-07-10T07:53:44.779Z,100964.41
2023-07-10T07:56:11.948Z,100964.78
2023-07-10T07:58:38.837Z,100968.56
2023-07-10T08:01:09.068Z,100983.31
2023-07-10T08:03:35.990Z,100983.31
2023-07-10T08:06:04.507Z,100975.53
2023-07-10T08:08:31.551Z,100978.66
2023-07-10T08:10:58.315Z,100986.03
2023-07-10T08:13:25.056Z,100988.97
2023-07-10T08:15:51.762Z,100988.78
2023-07-10T08:18:18.574Z,100987.94
2023-07-10T08:20:45.744Z,100990.44
2023-07-10T08:23:12.601Z,100993.81
2023-07-10T08:25:45.922Z,100980.13
2023-07-10T08:28:12.741Z,100988.59
2023-07-10T08:30:39.748Z,100989.84
2023-07-10T08:33:12.804Z,100991.09
2023-07-10T08:35:39.711Z,100978.66
2023-07-10T08:38:15.475Z,100987.94
2023-07-10T08:40:44.211Z,100991.53
2023-07-10T08:43:36.950Z,100981.03
2023-07-10T08:46:16.188Z,100986.13
2023-07-10T08:49:23.463Z,100990.09
2023-07-10T08:52:14.698Z,100999.38
2023-07-10T08:54:50.307Z,101000.44
2023-07-10T08:57:57.070Z,101007.19
2023-07-10T09:00:45.426Z,101014.13
2023-07-10T09:04:00.044Z,101018.53
2023-07-10T09:07:00.255Z,101013.91
2023-07-10T09:09:45.776Z,101008.25
2023-07-10T09:12:26.169Z,101024.03
2023-07-10T09:15:07.589Z,101015.38
2023-07-10T09:18:13.471Z,101032.88
2023-07-10T09:20:44.764Z,101036.03
2023-07-10T09:23:28.088Z,101037.75
2023-07-10T09:26:17.286Z,101033.94
2023-07-10T09:29:02.921Z,101035.22
2023-07-10T09:32:16.360Z,101042.41
2023-07-10T09:35:00.250Z,101035.22
2023-07-10T09:37:38.944Z,101043.44
2023-07-10T09:40:39.731Z,101046.16
2023-07-10T09:43:18.206Z,101040.59
2023-07-10T09:45:54.220Z,101040.13
2023-07-10T09:48:38.420Z,101042.59
2023-07-10T09:51:15.042Z,101052.91
2023-07-10T09:53:57.153Z,101051.13
2023-07-10T09:56:36.888Z,101052.66
2023-07-10T09:59:23.952Z,101065.53
2023-07-10T10:01:56.983Z,101056.03
2023-07-10T10:04:32.973Z,101061.09
2023-07-10T10:07:21.042Z,101067.28
2023-07-10T10:09:48.504Z,101072.53
2023-07-10T10:12:32.692Z,101067.88
2023-07-10T10:15:07.591Z,101075.06
2023-07-10T10:17:42.958Z,101068.13
2023-07-10T10:20:27.972Z,101081.16
2023-07-10T10:22:59.017Z,101070.69
2023-07-10T10:25:46.624Z,101075.09
2023-07-10T10:28:58.396Z,101069.78
2023-07-10T10:31:47.978Z,101071.59
2023-07-10T10:34:37.578Z,101067.78
2023-07-10T10:37:50.575Z,101072.00
2023-07-10T10:40:44.428Z,101082.50
2023-07-10T10:43:29.255Z,101071.69
2023-07-10T10:46:48.428Z,101080.72
2023-07-10T10:49:52.243Z,101073.19
2023-07-10T10:53:12.170Z,101068.41
2023-07-10T10:56:09.035Z,101077.88
2023-07-10T10:59:29.400Z,101071.75
2023-07-10T11:02:59.648Z,101075.69
2023-07-10T11:05:49.413Z,101076.94
2023-07-10T11:08:34.393Z,101081.16
2023-07-10T11:11:37.576Z,101087.00
2023-07-10T11:14:10.606Z,101082.53
2023-07-10T11:16:38.431Z,101090.59
2023-07-10T11:19:18.926Z,101089.44
2023-07-10T11:21:45.677Z,101098.53
2023-07-10T11:24:33.103Z,101088.38
2023-07-10T11:27:24.065Z,101080.50
2023-07-10T11:30:12.931Z,101087.47
2023-07-10T11:33:21.517Z,101095.75
2023-07-10T11:36:37.060Z,101094.06
2023-07-10T11:39:12.203Z,101098.78
2023-07-10T11:41:44.661Z,101106.31
2023-07-10T11:44:34.013Z,101093.53
2023-07-10T11:47:31.389Z,101097.88
2023-07-10T11:49:58.097Z,101099.22
2023-07-10T11:52:31.409Z,101102.66
2023-07-10T11:54:58.016Z,101100.75
2023-07-10T11:57:38.745Z,101098.72
2023-07-10T12:00:16.419Z,101097.00
2023-07-10T12:02:54.904Z,101100.88
2023-07-10T12:05:37.479Z,101097.56
2023-07-10T12:08:18.720Z,101098.97
2023-07-10T12:10:49.994Z,101103.66
2023-07-10T12:13:41.224Z,101104.25
2023-07-10T12:16:16.522Z,101097.56
2023-07-10T12:18:44.925Z,101100.13
2023-07-10T12:21:24.309Z,101099.41
2023-07-10T12:24:04.744Z,101101.50
2023-07-10T12:27:31.346Z,101113.22
2023-07-10T12:29:26.140Z,101110.16
2023-07-10T12:32:00.412Z,101125.84
2023-07-10T12:34:40.172Z,101119.38
2023-07-10T12:37:19.802Z,101120.75
2023-07-10T12:39:54.558Z,101130.25
2023-07-10T12:42:35.263Z,101128.16
2023-07-10T12:45:34.423Z,101137.22
2023-07-10T12:48:39.345Z,101135.97
2023-07-10T12:51:23.411Z,101139.34
2023-07-10T12:54:02.824Z,101131.16
2023-07-10T12:56:39.720Z,101133.06
2023-07-10T12:59:12.523Z,101130.19
2023-07-10T13:01:39.277Z,101132.22
2023-07-10T13:04:29.574Z,101138.81
2023-07-10T13:07:29.203Z,101143.22
2023-07-10T13:10:42.483Z,101149.19
2023-07-10T13:13:23.642Z,101150.56
2023-07-10T13:16:04.605Z,101147.72
2023-07-10T13:18:43.393Z,101140.81
2023-07-10T13:21:31.288Z,101131.03
2023-07-10T13:23:58.025Z,101146.25
2023-07-10T13:26:26.057Z,101154.06
2023-07-10T13:29:08.090Z,101153.31
2023-07-10T13:31:34.960Z,101152.81
2023-07-10T13:34:01.752Z,101159.59
2023-07-10T13:36:35.234Z,101161.88
2023-07-10T13:39:01.908Z,101156.88
2023-07-10T13:41:31.666Z,101159.28
2023-07-10T13:46:42.237Z,101162.44
2023-07-10T13:49:15.398Z,101157.66
2023-07-10T13:51:43.361Z,101157.25
2023-07-10T13:54:13.285Z,101161.00
2023-07-10T13:56:49.178Z,101162.72
2023-07-10T13:59:28.411Z,101165.00
2023-07-10T14:02:51.532Z,101151.69
2023-07-10T14:05:30.902Z,101158.22
2023-07-10T14:08:31.957Z,101182.22
2023-07-10T14:11:33.931Z,101181.50
2023-07-10T14:14:00.794Z,101172.66
2023-07-10T14:16:38.240Z,101173.81
2023-07-10T14:19:32.273Z,101176.69
2023-07-10T14:25:37.224Z,101172.28
2023-07-10T14:28:11.642Z,101176.53
2023-07-10T14:30:50.139Z,101157.59
2023-07-10T14:33:32.627Z,101164.03
2023-07-10T14:39:27.375Z,101162.72
2023-07-10T14:42:19.195Z,101150.56
2023-07-10T14:44:49.599Z,101173.72
2023-07-10T14:47:42.325Z,101176.06
2023-07-10T14:50:28.040Z,101162.22
2023-07-10T14:52:59.413Z,101176.38
2023-07-10T14:55:29.547Z,101179.09
2023-07-10T14:58:19.987Z,101175.66
2023-07-10T15:00:47.160Z,101187.09
2023-07-10T15:03:26.180Z,101186.09
2023-07-10T15:05:59.142Z,101174.16
2023-07-10T15:08:40.690Z,101184.16
2023-07-10T15:11:21.104Z,101178.69
2023-07-10T15:14:22.098Z,101170.25
2023-07-10T15:16:48.992Z,101176.09
2023-07-10T15:19:34.340Z,101182.66
2023-07-10T15:22:01.175Z,101174.38
2023-07-10T15:25:00.201Z,101163.63
2023-07-10T15:28:05.624Z,101143.25
2023-07-10T15:30:35.832Z,101135.63
2023-07-10T15:33:27.525Z,101155.13
2023-07-10T15:36:04.571Z,101147.97
2023-07-10T15:38:42.912Z,101157.88
2023-07-10T15:41:29.623Z,101143.84
2023-07-10T15:43:56.958Z,101132.03
2023-07-10T15:46:23.704Z,101136.81
2023-07-10T15:49:36.870Z,101129.41
2023-07-10T15:52:41.142Z,101140.34
2023-07-10T15:55:58.829Z,101128.94
2023-07-10T15:58:48.671Z,101123.13
2023-07-10T16:01:23.545Z,101133.84
2023-07-10T16:04:27.017Z,101125.28
2023-07-10T16:07:14.941Z,101133.25
2023-07-10T16:09:50.875Z,101119.50
2023-07-10T16:12:45.137Z,101122.97
2023-07-10T16:15:35.530Z,101126.59
2023-07-10T16:18:13.714Z,101125.25
2023-07-10T16:20:46.599Z,101127.00
2023-07-10T16:23:38.812Z,101125.31
2023-07-10T16:26:10.090Z,101118.72
2023-07-10T16:28:37.014Z,101124.91
2023-07-10T16:31:07.495Z,101130.91
2023-07-10T16:33:48.220Z,101136.13
2023-07-10T16:39:04.045Z,101141.22
2023-07-10T16:41:37.492Z,101146.28
2023-07-10T16:44:16.580Z,101140.16
2023-07-10T16:46:43.332Z,101139.44
2023-07-10T16:49:12.343Z,101128.75
2023-07-10T16:53:04.233Z,101136.16
2023-07-10T16:55:40.412Z,101121.66
2023-07-10T16:58:10.187Z,101136.31
2023-07-10T17:01:20.536Z,101127.56
2023-07-10T17:04:10.761Z,101122.63
2023-07-10T17:06:40.598Z,101119.75
2023-07-10T17:09:11.892Z,101123.84
2023-07-10T17:12:02.583Z,101130.78
2023-07-10T17:14:54.917Z,101105.44
2023-07-10T17:17:27.364Z,101135.16
2023-07-10T17:20:19.117Z,101112.69
2023-07-10T17:22:47.015Z,101116.47
2023-07-10T17:25:17.826Z,101129.50
2023-07-10T17:27:57.796Z,101125.53
2023-07-10T17:30:39.547Z,101124.06
2023-07-10T17:33:37.803Z,101117.72
2023-07-10T17:36:17.891Z,101130.81
2023-07-10T17:38:46.354Z,101130.28
2023-07-10T17:41:38.920Z,101124.91
2023-07-10T17:44:36.799Z,101124.81
2023-07-10T17:47:04.085Z,101121.72
2023-07-10T17:49:42.488Z,101111.22
2023-07-10T17:52:18.632Z,101125.41
2023-07-10T17:54:45.859Z,101124.41
2023-07-10T17:57:20.556Z,101121.56
2023-07-10T17:59:48.766Z,101127.28
2023-07-10T18:02:37.466Z,101119.69
2023-07-10T18:05:28.647Z,101118.47
2023-07-10T18:07:55.415Z,101117.44
2023-07-10T18:10:22.412Z,101122.38
2023-07-10T18:12:51.428Z,101117.13
2023-07-10T18:15:24.473Z,101122.69
2023-07-10T18:17:51.195Z,101131.19
2023-07-10T18:20:26.703Z,101137.13
2023-07-10T18:22:58.954Z,101129.56
2023-07-10T18:25:25.640Z,101131.91
2023-07-10T18:27:54.128Z,101136.81
2023-07-10T18:30:21.049Z,101138.28
2023-07-10T18:32:47.815Z,101139.13
2023-07-10T18:35:23.863Z,101143.41
2023-07-10T18:37:50.518Z,101143.59
2023-07-10T18:40:17.584Z,101153.53
2023-07-10T18:42:45.072Z,101152.28
2023-07-10T18:45:18.232Z,101147.66
2023-07-10T18:47:45.058Z,101144.91
2023-07-10T18:50:16.843Z,101149.31
2023-07-10T18:52:46.285Z,101154.63
2023-07-10T18:55:21.206Z,101153.78
2023-07-10T18:57:49.170Z,101144.88
2023-07-10T19:00:27.268Z,101144.03
2023-07-10T19:02:59.399Z,101145.72
2023-07-10T19:05:26.389Z,101150.97
2023-07-10T19:07:59.069Z,101153.72
2023-07-10T19:10:37.906Z,101161.09
2023-07-10T19:13:14.517Z,101154.50
2023-07-10T19:15:47.757Z,101156.63
2023-07-10T19:18:33.263Z,101167.34
2023-07-10T19:21:04.911Z,101165.66
2023-07-10T19:23:33.352Z,101162.88
2023-07-10T19:26:00.256Z,101174.44
2023-07-10T19:28:31.268Z,101173.56
2023-07-10T19:31:10.324Z,101179.38
2023-07-10T19:33:44.889Z,101182.94
2023-07-10T19:36:27.243Z,101188.16
2023-07-10T19:38:58.158Z,101186.44
2023-07-10T19:41:31.011Z,101184.31
2023-07-10T19:43:57.730Z,101181.72
2023-07-10T19:46:26.280Z,101195.63
2023-07-10T19:48:56.771Z,101191.13
2023-07-10T19:51:23.595Z,101184.75
2023-07-10T19:53:55.358Z,101193.38
2023-07-10T19:56:23.371Z,101182.63
2023-07-10T19:58:55.309Z,101182.59
2023-07-10T20:01:22.160Z,101189.91
2023-07-10T20:03:50.907Z,101183.78
2023-07-10T20:06:34.849Z,101180.38
2023-07-10T20:09:17.734Z,101187.94
2023-07-10T20:11:47.946Z,101189.56
2023-07-10T20:14:18.252Z,101186.56
2023-07-10T20:16:50.501Z,101181.03
2023-07-10T20:19:25.104Z,101177.41
2023-07-10T20:21:57.082Z,101175.06
2023-07-10T20:24:25.745Z,101180.47
2023-07-10T20:27:00.230Z,101173.22
2023-07-10T20:29:28.276Z,101181.75
2023-07-10T20:31:57.868Z,101175.31
2023-07-10T20:34:24.727Z,101176.09
2023-07-10T20:36:58.003Z,101170.13
2023-07-10T20:39:25.224Z,101183.13
2023-07-10T20:41:58.923Z,101179.47
2023-07-10T20:44:25.746Z,101166.47
2023-07-10T20:46:56.550Z,101182.19
2023-07-10T20:49:27.782Z,101166.94
2023-07-10T20:51:57.526Z,101159.25
2023-07-10T20:54:28.448Z,101167.09
2023-07-10T20:56:58.633Z,101167.56
2023-07-10T20:59:29.546Z,101174.78
2023-07-10T21:02:03.368Z,101166.31
2023-07-10T21:07:29.987Z,101158.03
2023-07-10T21:09:57.759Z,101166.00
2023-07-10T21:12:24.654Z,101170.66
2023-07-10T21:14:52.914Z,101168.38
2023-07-10T21:17:32.837Z,101161.47
2023-07-10T21:20:01.435Z,101165.69
2023-07-10T21:22:34.017Z,101168.63
2023-07-10T21:25:00.716Z,101168.88
2023-07-10T21:27:30.772Z,101167.91
2023-07-10T21:30:32.008Z,101171.34
2023-07-10T21:32:58.818Z,101169.41
2023-07-10T21:35:36.666Z,101166.38
2023-07-10T21:38:03.376Z,101160.97
2023-07-10T21:40:38.778Z,101160.69
2023-07-10T21:43:14.111Z,101171.19
2023-07-10T21:46:08.255Z,101164.59
2023-07-10T21:48:35.398Z,101168.03
2023-07-10T21:51:12.099Z,101158.88
2023-07-10T21:53:38.829Z,101158.22
2023-07-10T21:56:08.355Z,101160.13
2023-07-10T21:58:45.947Z,101167.75
2023-07-10T22:01:18.259Z,101166.78
2023-07-10T22:03:56.401Z,101157.78
2023-07-10T22:06:34.165Z,101152.88
2023-07-10T22:09:03.505Z,101144.72
2023-07-10T22:11:34.456Z,101153.75
2023-07-10T22:14:03.253Z,101142.03
2023-07-10T22:16:33.430Z,101157.00
2023-07-10T22:19:07.092Z,101143.41
2023-07-10T22:21:35.980Z,101143.09
2023-07-10T22:24:16.404Z,101138.50
2023-07-10T22:26:43.480Z,101130.19
2023-07-10T22:29:10.266Z,101138.34
2023-07-10T22:31:38.984Z,101134.63
2023-07-10T22:34:08.606Z,101149.75
2023-07-10T22:36:37.900Z,101156.03
2023-07-10T22:39:07.509Z,101158.22
2023-07-10T22:41:36.353Z,101159.41
2023-07-10T22:44:20.108Z,101147.69
2023-07-10T22:46:49.802Z,101148.38
2023-07-10T22:49:17.692Z,101152.97
2023-07-10T22:51:47.680Z,101162.66
2023-07-10T22:54:14.305Z,101156.53
2023-07-10T22:56:43.228Z,101156.91
2023-07-10T22:59:28.580Z,101152.81
2023-07-10T23:01:58.508Z,101152.50
2023-07-10T23:04:27.647Z,101154.38
2023-07-10T23:07:01.226Z,101144.69
2023-07-10T23:09:28.012Z,101132.28
2023-07-10T23:11:55.946Z,101147.72
2023-07-10T23:14:22.750Z,101148.75
2023-07-10T23:16:54.615Z,101141.94
2023-07-10T23:19:21.612Z,101146.69
2023-07-10T23:21:49.049Z,101143.28
2023-07-10T23:24:18.359Z,101137.00
2023-07-10T23:26:47.473Z,101142.97
2023-07-10T23:29:14.201Z,101137.69
2023-07-10T23:31:41.121Z,101148.72
2023-07-10T23:34:13.648Z,101143.13
2023-07-10T23:36:40.522Z,101143.28
2023-07-10T23:39:10.828Z,101142.28
2023-07-10T23:41:37.739Z,101145.16
2023-07-10T23:44:10.880Z,101142.63
2023-07-10T23:46:37.611Z,101145.66
2023-07-10T23:49:10.063Z,101139.75
2023-07-10T23:51:37.892Z,101142.63
2023-07-10T23:54:05.604Z,101145.50
2023-07-10T23:56:32.577Z,101154.00
2023-07-10T23:59:01.279Z,101144.13
